sensor_id;sensor_type;location;lat;lon;timestamp;pressure;altitude;pressure_sealevel;temperature;humidity
33496;BME280;19836;55.812;37.560;2023-09-30T00:01:34;99966.03;;;15.47;72.29
33496;BME280;19836;55.812;37.560;2023-09-30T00:04:00;99972.50;;;15.43;72.21
33496;BME280;19836;55.812;37.560;2023-09-30T00:06:28;99970.75;;;15.42;72.38
33496;BME280;19836;55.812;37.560;2023-09-30T00:08:54;99970.88;;;15.39;72.24
33496;BME280;19836;55.812;37.560;2023-09-30T00:11:20;99976.28;;;15.39;72.73
33496;BME280;19836;55.812;37.560;2023-09-30T00:13:46;99979.94;;;15.38;72.77
33496;BME280;19836;55.812;37.560;2023-09-30T00:16:14;99976.44;;;15.36;73.00
33496;BME280;19836;55.812;37.560;2023-09-30T00:18:43;99978.34;;;15.33;72.63
33496;BME280;19836;55.812;37.560;2023-09-30T00:21:09;99972.91;;;15.34;72.85
33496;BME280;19836;55.812;37.560;2023-09-30T00:23:35;99971.03;;;15.36;73.00
33496;BME280;19836;55.812;37.560;2023-09-30T00:26:01;99967.47;;;15.36;72.87
33496;BME280;19836;55.812;37.560;2023-09-30T00:28:26;99971.16;;;15.33;72.71
33496;BME280;19836;55.812;37.560;2023-09-30T00:30:54;99968.50;;;15.32;72.68
33496;BME280;19836;55.812;37.560;2023-09-30T00:33:21;99963.25;;;15.29;73.13
33496;BME280;19836;55.812;37.560;2023-09-30T00:35:47;99967.78;;;15.28;73.31
33496;BME280;19836;55.812;37.560;2023-09-30T00:38:13;99964.28;;;15.26;73.12
33496;BME280;19836;55.812;37.560;2023-09-30T00:40:40;99963.38;;;15.26;73.40
33496;BME280;19836;55.812;37.560;2023-09-30T00:43:18;99962.50;;;15.25;73.30
33496;BME280;19836;55.812;37.560;2023-09-30T00:45:44;99962.78;;;15.19;73.20
33496;BME280;19836;55.812;37.560;2023-09-30T00:48:10;99962.78;;;15.19;73.84
33496;BME280;19836;55.812;37.560;2023-09-30T00:50:36;99960.09;;;15.19;73.48
33496;BME280;19836;55.812;37.560;2023-09-30T00:53:03;99964.63;;;15.19;73.31
33496;BME280;19836;55.812;37.560;2023-09-30T00:55:29;99964.75;;;15.16;73.66
33496;BME280;19836;55.812;37.560;2023-09-30T00:57:56;99964.81;;;15.14;73.43
33496;BME280;19836;55.812;37.560;2023-09-30T01:00:23;99956.88;;;15.11;73.23
33496;BME280;19836;55.812;37.560;2023-09-30T01:02:51;99959.56;;;15.11;73.56
33496;BME280;19836;55.812;37.560;2023-09-30T01:05:19;99956.03;;;15.09;73.75
33496;BME280;19836;55.812;37.560;2023-09-30T01:07:45;99950.81;;;15.06;73.72
33496;BME280;19836;55.812;37.560;2023-09-30T01:10:12;99948.16;;;15.05;73.71
33496;BME280;19836;55.812;37.560;2023-09-30T01:12:38;99948.22;;;15.03;73.96
33496;BME280;19836;55.812;37.560;2023-09-30T01:15:07;99948.44;;;14.99;73.93
33496;BME280;19836;55.812;37.560;2023-09-30T01:17:32;99952.16;;;14.96;74.01
33496;BME280;19836;55.812;37.560;2023-09-30T01:20:00;99950.47;;;14.94;74.00
33496;BME280;19836;55.812;37.560;2023-09-30T01:22:26;99956.88;;;14.91;74.19
33496;BME280;19836;55.812;37.560;2023-09-30T01:24:55;99956.88;;;14.91;74.20
33496;BME280;19836;55.812;37.560;2023-09-30T01:27:21;99946.22;;;14.88;74.25
33496;BME280;19836;55.812;37.560;2023-09-30T01:29:47;99947.09;;;14.89;74.34
33496;BME280;19836;55.812;37.560;2023-09-30T01:32:15;99953.50;;;14.86;74.56
33496;BME280;19836;55.812;37.560;2023-09-30T01:34:41;99950.94;;;14.83;74.35
33496;BME280;19836;55.812;37.560;2023-09-30T01:37:06;99945.66;;;14.80;74.66
33496;BME280;19836;55.812;37.560;2023-09-30T01:39:33;99944.88;;;14.78;74.93
33496;BME280;19836;55.812;37.560;2023-09-30T01:41:59;99948.50;;;14.77;74.63
33496;BME280;19836;55.812;37.560;2023-09-30T01:44:27;99944.97;;;14.75;74.89
33496;BME280;19836;55.812;37.560;2023-09-30T01:46:54;99943.25;;;14.74;74.88
33496;BME280;19836;55.812;37.560;2023-09-30T01:49:20;99948.69;;;14.73;74.72
33496;BME280;19836;55.812;37.560;2023-09-30T01:51:50;99943.38;;;14.71;75.24
33496;BME280;19836;55.812;37.560;2023-09-30T01:54:16;99946.16;;;14.70;75.18
33496;BME280;19836;55.812;37.560;2023-09-30T01:56:42;99943.50;;;14.68;74.97
33496;BME280;19836;55.812;37.560;2023-09-30T01:59:08;99945.25;;;14.69;75.06
33496;BME280;19836;55.812;37.560;2023-09-30T02:01:37;99940.75;;;14.70;75.15
33496;BME280;19836;55.812;37.560;2023-09-30T02:04:04;99939.00;;;14.69;75.26
33496;BME280;19836;55.812;37.560;2023-09-30T02:06:32;99945.31;;;14.68;74.94
33496;BME280;19836;55.812;37.560;2023-09-30T02:08:58;99941.59;;;14.70;75.13
33496;BME280;19836;55.812;37.560;2023-09-30T02:11:24;99936.97;;;14.74;74.82
33496;BME280;19836;55.812;37.560;2023-09-30T02:13:50;99934.06;;;14.78;74.94
33496;BME280;19836;55.812;37.560;2023-09-30T02:16:16;99935.09;;;14.76;74.52
33496;BME280;19836;55.812;37.560;2023-09-30T02:18:43;99928.97;;;14.72;74.83
33496;BME280;19836;55.812;37.560;2023-09-30T02:21:11;99934.47;;;14.69;74.53
33496;BME280;19836;55.812;37.560;2023-09-30T02:23:37;99931.84;;;14.68;74.91
33496;BME280;19836;55.812;37.560;2023-09-30T02:26:03;99930.09;;;14.67;74.84
33496;BME280;19836;55.812;37.560;2023-09-30T02:28:29;99929.34;;;14.63;75.06
33496;BME280;19836;55.812;37.560;2023-09-30T02:31:02;99931.25;;;14.61;74.64
33496;BME280;19836;55.812;37.560;2023-09-30T02:33:28;99925.03;;;14.59;75.07
33496;BME280;19836;55.812;37.560;2023-09-30T02:35:54;99920.59;;;14.58;74.85
33496;BME280;19836;55.812;37.560;2023-09-30T02:38:20;99927.78;;;14.58;75.39
33496;BME280;19836;55.812;37.560;2023-09-30T02:40:48;99920.69;;;14.55;75.48
33496;BME280;19836;55.812;37.560;2023-09-30T02:43:15;99926.25;;;14.52;75.45
33496;BME280;19836;55.812;37.560;2023-09-30T02:45:42;99917.22;;;14.53;75.18
33496;BME280;19836;55.812;37.560;2023-09-30T02:48:09;99920.84;;;14.52;75.26
33496;BME280;19836;55.812;37.560;2023-09-30T02:50:35;99917.31;;;14.50;75.18
33496;BME280;19836;55.812;37.560;2023-09-30T02:53:01;99916.47;;;14.50;75.41
33496;BME280;19836;55.812;37.560;2023-09-30T02:55:27;99916.59;;;14.47;75.23
33496;BME280;19836;55.812;37.560;2023-09-30T02:57:53;99914.03;;;14.44;75.32
33496;BME280;19836;55.812;37.560;2023-09-30T03:00:21;99920.34;;;14.43;75.49
33496;BME280;19836;55.812;37.560;2023-09-30T03:02:51;99916.84;;;14.41;75.23
33496;BME280;19836;55.812;37.560;2023-09-30T03:05:18;99908.84;;;14.39;75.36
33496;BME280;19836;55.812;37.560;2023-09-30T03:07:45;99912.47;;;14.38;75.31
33496;BME280;19836;55.812;37.560;2023-09-30T03:10:11;99908.16;;;14.34;75.39
33496;BME280;19836;55.812;37.560;2023-09-30T03:12:40;99905.66;;;14.30;75.88
33496;BME280;19836;55.812;37.560;2023-09-30T03:15:06;99909.22;;;14.30;75.99
33496;BME280;19836;55.812;37.560;2023-09-30T03:17:32;99902.97;;;14.30;75.95
33496;BME280;19836;55.812;37.560;2023-09-30T03:19:58;99905.72;;;14.28;76.18
33496;BME280;19836;55.812;37.560;2023-09-30T03:22:26;99908.41;;;14.28;76.21
33496;BME280;19836;55.812;37.560;2023-09-30T03:24:54;99909.38;;;14.27;76.05
33496;BME280;19836;55.812;37.560;2023-09-30T03:27:22;99904.03;;;14.26;76.25
33496;BME280;19836;55.812;37.560;2023-09-30T03:29:48;99904.97;;;14.25;76.23
33496;BME280;19836;55.812;37.560;2023-09-30T03:32:15;99910.38;;;14.25;76.46
33496;BME280;19836;55.812;37.560;2023-09-30T03:34:41;99910.38;;;14.25;76.55
33496;BME280;19836;55.812;37.560;2023-09-30T03:37:10;99911.22;;;14.25;76.33
33496;BME280;19836;55.812;37.560;2023-09-30T03:39:36;99907.72;;;14.23;76.10
33496;BME280;19836;55.812;37.560;2023-09-30T03:42:02;99905.94;;;14.24;76.58
33496;BME280;19836;55.812;37.560;2023-09-30T03:44:29;99906.00;;;14.22;76.29
33496;BME280;19836;55.812;37.560;2023-09-30T03:46:55;99904.09;;;14.24;76.35
33496;BME280;19836;55.812;37.560;2023-09-30T03:49:22;99897.84;;;14.24;76.57
33496;BME280;19836;55.812;37.560;2023-09-30T03:51:48;99903.22;;;14.24;76.52
33496;BME280;19836;55.812;37.560;2023-09-30T03:54:17;99909.41;;;14.26;76.69
33496;BME280;19836;55.812;37.560;2023-09-30T03:56:45;99904.84;;;14.28;76.49
33496;BME280;19836;55.812;37.560;2023-09-30T03:59:12;99904.78;;;14.29;76.54
33496;BME280;19836;55.812;37.560;2023-09-30T04:01:38;99904.66;;;14.32;76.79
33496;BME280;19836;55.812;37.560;2023-09-30T04:04:07;99898.19;;;14.36;76.23
33496;BME280;19836;55.812;37.560;2023-09-30T04:06:35;99898.03;;;14.39;76.61
33496;BME280;19836;55.812;37.560;2023-09-30T04:09:07;99899.78;;;14.40;76.45
33496;BME280;19836;55.812;37.560;2023-09-30T04:11:37;99904.19;;;14.43;76.42
33496;BME280;19836;55.812;37.560;2023-09-30T04:14:04;99892.38;;;14.45;76.62
33496;BME280;19836;55.812;37.560;2023-09-30T04:16:31;99895.91;;;14.47;76.50
33496;BME280;19836;55.812;37.560;2023-09-30T04:18:57;99905.69;;;14.50;76.67
33496;BME280;19836;55.812;37.560;2023-09-30T04:21:23;99893.00;;;14.52;76.32
33496;BME280;19836;55.812;37.560;2023-09-30T04:23:49;99899.00;;;14.58;76.45
33496;BME280;19836;55.812;37.560;2023-09-30T04:26:15;99897.94;;;14.62;76.21
33496;BME280;19836;55.812;37.560;2023-09-30T04:28:43;99895.09;;;14.65;76.07
33496;BME280;19836;55.812;37.560;2023-09-30T04:31:09;99901.16;;;14.70;75.98
33496;BME280;19836;55.812;37.560;2023-09-30T04:33:35;99898.34;;;14.73;76.03
33496;BME280;19836;55.812;37.560;2023-09-30T04:36:02;99899.06;;;14.77;75.99
33496;BME280;19836;55.812;37.560;2023-09-30T04:38:28;99899.75;;;14.82;75.87
33496;BME280;19836;55.812;37.560;2023-09-30T04:40:56;99908.56;;;14.85;76.11
33496;BME280;19836;55.812;37.560;2023-09-30T04:43:24;99902.16;;;14.88;75.67
33496;BME280;19836;55.812;37.560;2023-09-30T04:45:50;99907.38;;;14.92;76.06
33496;BME280;19836;55.812;37.560;2023-09-30T04:48:18;99905.34;;;14.97;75.95
33496;BME280;19836;55.812;37.560;2023-09-30T04:50:47;99903.25;;;15.04;75.71
33496;BME280;19836;55.812;37.560;2023-09-30T04:53:13;99908.34;;;15.10;75.33
33496;BME280;19836;55.812;37.560;2023-09-30T04:55:41;99908.66;;;15.22;75.56
33496;BME280;19836;55.812;37.560;2023-09-30T04:58:07;99902.84;;;15.31;74.83
33496;BME280;19836;55.812;37.560;2023-09-30T05:00:34;99899.78;;;15.39;74.42
33496;BME280;19836;55.812;37.560;2023-09-30T05:03:03;99904.75;;;15.48;74.36
33496;BME280;19836;55.812;37.560;2023-09-30T05:05:31;99891.63;;;15.59;74.29
33496;BME280;19836;55.812;37.560;2023-09-30T05:07:57;99900.25;;;15.67;73.69
33496;BME280;19836;55.812;37.560;2023-09-30T05:10:24;99894.53;;;15.73;73.44
33496;BME280;19836;55.812;37.560;2023-09-30T05:12:50;99894.16;;;15.80;73.42
33496;BME280;19836;55.812;37.560;2023-09-30T05:15:20;99896.56;;;15.86;73.27
33496;BME280;19836;55.812;37.560;2023-09-30T05:18:15;99892.69;;;15.92;72.96
33496;BME280;19836;55.812;37.560;2023-09-30T05:21:18;99884.28;;;15.98;72.30
33496;BME280;19836;55.812;37.560;2023-09-30T05:23:45;99891.22;;;16.03;72.32
33496;BME280;19836;55.812;37.560;2023-09-30T05:53:05;99879.69;;;16.52;70.32
33496;BME280;19836;55.812;37.560;2023-09-30T05:55:31;99870.63;;;16.53;70.24
33496;BME280;19836;55.812;37.560;2023-09-30T05:57:57;99876.81;;;16.55;69.70
33496;BME280;19836;55.812;37.560;2023-09-30T06:00:26;99868.28;;;16.63;69.88
33496;BME280;19836;55.812;37.560;2023-09-30T06:02:57;99873.56;;;16.66;69.90
33496;BME280;19836;55.812;37.560;2023-09-30T06:05:23;99870.78;;;16.67;69.79
33496;BME280;19836;55.812;37.560;2023-09-30T06:07:49;99872.19;;;16.74;69.44
33496;BME280;19836;55.812;37.560;2023-09-30T06:10:16;99871.72;;;16.83;69.48
33496;BME280;19836;55.812;37.560;2023-09-30T06:12:51;99867.09;;;16.85;69.23
33496;BME280;19836;55.812;37.560;2023-09-30T06:15:25;99867.72;;;16.90;68.99
33496;BME280;19836;55.812;37.560;2023-09-30T06:17:52;99865.47;;;16.98;68.65
33496;BME280;19836;55.812;37.560;2023-09-30T06:20:19;99863.22;;;17.06;68.35
33496;BME280;19836;55.812;37.560;2023-09-30T06:22:48;99856.69;;;17.10;68.44
33496;BME280;19836;55.812;37.560;2023-09-30T06:25:16;99853.97;;;17.10;68.46
33496;BME280;19836;55.812;37.560;2023-09-30T06:27:47;99859.03;;;17.16;68.19
33496;BME280;19836;55.812;37.560;2023-09-30T06:30:18;99852.44;;;17.22;68.37
33496;BME280;19836;55.812;37.560;2023-09-30T06:37:17;99845.91;;;17.41;67.50
33496;BME280;19836;55.812;37.560;2023-09-30T06:39:50;99840.97;;;17.49;67.22
33496;BME280;19836;55.812;37.560;2023-09-30T06:42:19;99836.94;;;17.56;66.96
33496;BME280;19836;55.812;37.560;2023-09-30T06:47:55;99839.91;;;17.83;66.16
33496;BME280;19836;55.812;37.560;2023-09-30T06:50:23;99836.81;;;17.89;65.77
33496;BME280;19836;55.812;37.560;2023-09-30T06:53:11;99836.13;;;18.01;65.54
33496;BME280;19836;55.812;37.560;2023-09-30T07:04:05;99827.03;;;18.47;64.21
33496;BME280;19836;55.812;37.560;2023-09-30T07:06:32;99826.47;;;18.56;63.94
33496;BME280;19836;55.812;37.560;2023-09-30T07:08:58;99822.22;;;18.66;63.34
33496;BME280;19836;55.812;37.560;2023-09-30T07:11:31;99816.91;;;18.78;62.98
33496;BME280;19836;55.812;37.560;2023-09-30T07:14:03;99833.50;;;18.88;62.56
33496;BME280;19836;55.812;37.560;2023-09-30T07:16:29;99819.34;;;18.97;62.42
33496;BME280;19836;55.812;37.560;2023-09-30T07:18:58;99817.13;;;19.03;62.35
33496;BME280;19836;55.812;37.560;2023-09-30T07:21:24;99820.41;;;19.08;62.02
33496;BME280;19836;55.812;37.560;2023-09-30T07:23:50;99812.84;;;19.13;61.74
33496;BME280;19836;55.812;37.560;2023-09-30T07:26:16;99808.75;;;19.20;61.65
33496;BME280;19836;55.812;37.560;2023-09-30T07:28:49;99810.34;;;19.24;61.44
33496;BME280;19836;55.812;37.560;2023-09-30T07:31:55;99812.34;;;19.35;61.48
33496;BME280;19836;55.812;37.560;2023-09-30T07:34:21;99810.78;;;19.45;61.23
33496;BME280;19836;55.812;37.560;2023-09-30T07:36:47;99806.50;;;19.55;60.88
33496;BME280;19836;55.812;37.560;2023-09-30T07:39:13;99806.88;;;19.63;60.53
33496;BME280;19836;55.812;37.560;2023-09-30T07:41:38;99807.91;;;19.74;60.63
33496;BME280;19836;55.812;37.560;2023-09-30T07:44:04;99807.19;;;19.85;60.45
33496;BME280;19836;55.812;37.560;2023-09-30T07:46:31;99809.28;;;19.94;60.29
33496;BME280;19836;55.812;37.560;2023-09-30T07:48:57;99807.72;;;20.04;59.80
33496;BME280;19836;55.812;37.560;2023-09-30T07:51:24;99801.69;;;20.13;59.46
33496;BME280;19836;55.812;37.560;2023-09-30T07:53:50;99803.22;;;20.17;59.20
33496;BME280;19836;55.812;37.560;2023-09-30T07:56:16;99804.75;;;20.21;59.08
33496;BME280;19836;55.812;37.560;2023-09-30T07:58:42;99805.31;;;20.26;58.85
33496;BME280;19836;55.812;37.560;2023-09-30T08:01:08;99793.13;;;20.31;58.68
33496;BME280;19836;55.812;37.560;2023-09-30T08:03:34;99798.94;;;20.39;58.41
33496;BME280;19836;55.812;37.560;2023-09-30T08:06:02;99797.41;;;20.48;58.16
33496;BME280;19836;55.812;37.560;2023-09-30T08:08:28;99789.47;;;20.57;57.70
33496;BME280;19836;55.812;37.560;2023-09-30T08:10:55;99791.53;;;20.66;57.47
33496;BME280;19836;55.812;37.560;2023-09-30T08:13:24;99787.41;;;20.73;57.12
33496;BME280;19836;55.812;37.560;2023-09-30T08:15:51;99793.28;;;20.80;56.76
33496;BME280;19836;55.812;37.560;2023-09-30T08:18:18;99785.25;;;20.91;56.51
33496;BME280;19836;55.812;37.560;2023-09-30T08:20:44;99779.16;;;21.00;56.42
33496;BME280;19836;55.812;37.560;2023-09-30T08:23:10;99787.00;;;21.04;56.16
33496;BME280;19836;55.812;37.560;2023-09-30T08:25:39;99775.56;;;21.12;55.62
33496;BME280;19836;55.812;37.560;2023-09-30T08:28:05;99784.13;;;21.18;55.60
33496;BME280;19836;55.812;37.560;2023-09-30T08:30:33;99776.28;;;21.26;55.18
33496;BME280;19836;55.812;37.560;2023-09-30T08:32:59;99766.66;;;21.33;54.56
33496;BME280;19836;55.812;37.560;2023-09-30T08:35:25;99772.53;;;21.40;54.43
33496;BME280;19836;55.812;37.560;2023-09-30T08:37:50;99758.34;;;21.47;54.27
33496;BME280;19836;55.812;37.560;2023-09-30T08:40:20;99764.22;;;21.54;53.98
33496;BME280;19836;55.812;37.560;2023-09-30T08:42:53;99760.72;;;21.64;53.93
33496;BME280;19836;55.812;37.560;2023-09-30T08:45:19;99760.38;;;21.69;53.34
33496;BME280;19836;55.812;37.560;2023-09-30T08:47:45;99758.06;;;21.75;53.21
33496;BME280;19836;55.812;37.560;2023-09-30T08:50:16;99752.03;;;21.83;52.76
33496;BME280;19836;55.812;37.560;2023-09-30T08:52:44;99751.47;;;21.90;51.89
33496;BME280;19836;55.812;37.560;2023-09-30T08:55:12;99756.22;;;21.99;51.57
33496;BME280;19836;55.812;37.560;2023-09-30T08:57:40;99747.78;;;22.02;50.66
33496;BME280;19836;55.812;37.560;2023-09-30T09:00:08;99740.88;;;22.09;50.72
33496;BME280;19836;55.812;37.560;2023-09-30T09:02:37;99747.75;;;22.26;50.45
33496;BME280;19836;55.812;37.560;2023-09-30T09:05:04;99737.13;;;22.79;49.56
33496;BME280;19836;55.812;37.560;2023-09-30T09:07:30;99743.69;;;24.07;47.56
33496;BME280;19836;55.812;37.560;2023-09-30T09:10:11;99730.81;;;25.01;45.22
33496;BME280;19836;55.812;37.560;2023-09-30T09:12:40;99730.09;;;25.68;44.02
33496;BME280;19836;55.812;37.560;2023-09-30T09:15:08;99722.91;;;26.81;42.18
33496;BME280;19836;55.812;37.560;2023-09-30T09:17:44;99732.47;;;28.04;39.99
33496;BME280;19836;55.812;37.560;2023-09-30T09:20:13;99734.28;;;27.96;38.64
33496;BME280;19836;55.812;37.560;2023-09-30T09:22:45;99724.47;;;28.28;38.07
33496;BME280;19836;55.812;37.560;2023-09-30T09:25:11;99725.22;;;28.73;37.11
33496;BME280;19836;55.812;37.560;2023-09-30T09:27:37;99733.69;;;28.54;36.59
33496;BME280;19836;55.812;37.560;2023-09-30T09:30:29;99729.03;;;28.02;36.66
33496;BME280;19836;55.812;37.560;2023-09-30T09:33:03;99723.50;;;27.85;36.67
33496;BME280;19836;55.812;37.560;2023-09-30T09:35:34;99732.59;;;28.12;35.54
33496;BME280;19836;55.812;37.560;2023-09-30T09:40:30;99715.97;;;28.39;35.03
33496;BME280;19836;55.812;37.560;2023-09-30T09:42:57;99709.31;;;28.67;35.12
33496;BME280;19836;55.812;37.560;2023-09-30T09:45:27;99709.53;;;30.08;34.03
33496;BME280;19836;55.812;37.560;2023-09-30T09:47:54;99715.72;;;31.46;32.22
33496;BME280;19836;55.812;37.560;2023-09-30T09:50:21;99712.69;;;32.02;30.70
33496;BME280;19836;55.812;37.560;2023-09-30T09:52:48;99710.19;;;31.46;30.24
33496;BME280;19836;55.812;37.560;2023-09-30T09:55:19;99705.91;;;32.05;29.69
33496;BME280;19836;55.812;37.560;2023-09-30T09:57:46;99700.25;;;31.60;29.34
33496;BME280;19836;55.812;37.560;2023-09-30T10:00:16;99709.59;;;31.59;29.93
33496;BME280;19836;55.812;37.560;2023-09-30T10:02:42;99702.72;;;31.85;28.79
33496;BME280;19836;55.812;37.560;2023-09-30T10:05:08;99704.72;;;30.18;29.75
33496;BME280;19836;55.812;37.560;2023-09-30T10:07:39;99698.00;;;30.36;30.18
33496;BME280;19836;55.812;37.560;2023-09-30T10:10:09;99689.00;;;30.82;30.13
33496;BME280;19836;55.812;37.560;2023-09-30T10:12:38;99689.28;;;31.27;29.29
33496;BME280;19836;55.812;37.560;2023-09-30T10:18:00;99688.25;;;32.51;27.86
33496;BME280;19836;55.812;37.560;2023-09-30T10:20:33;99692.13;;;30.55;28.61
33496;BME280;19836;55.812;37.560;2023-09-30T10:23:20;99680.66;;;28.86;31.14
33496;BME280;19836;55.812;37.560;2023-09-30T10:25:47;99698.88;;;28.18;32.16
33496;BME280;19836;55.812;37.560;2023-09-30T10:36:34;99694.66;;;27.25;33.17
33496;BME280;19836;55.812;37.560;2023-09-30T10:39:02;99691.84;;;27.17;33.32
33496;BME280;19836;55.812;37.560;2023-09-30T10:46:57;99660.91;;;29.32;30.84
33496;BME280;19836;55.812;37.560;2023-09-30T10:51:54;99667.78;;;28.08;31.70
33496;BME280;19836;55.812;37.560;2023-09-30T10:54:24;99659.13;;;28.89;31.94
33496;BME280;19836;55.812;37.560;2023-09-30T10:56:51;99659.69;;;29.68;30.88
33496;BME280;19836;55.812;37.560;2023-09-30T10:59:19;99651.84;;;30.13;30.41
33496;BME280;19836;55.812;37.560;2023-09-30T11:01:45;99656.31;;;30.06;30.67
33496;BME280;19836;55.812;37.560;2023-09-30T11:04:11;99647.47;;;29.37;30.66
33496;BME280;19836;55.812;37.560;2023-09-30T11:06:41;99649.44;;;28.85;31.46
33496;BME280;19836;55.812;37.560;2023-09-30T11:09:08;99645.50;;;28.62;31.77
33496;BME280;19836;55.812;37.560;2023-09-30T11:11:43;99642.72;;;28.19;31.85
33496;BME280;19836;55.812;37.560;2023-09-30T11:14:29;99641.25;;;28.07;32.31
33496;BME280;19836;55.812;37.560;2023-09-30T11:17:01;99652.56;;;27.87;32.61
33496;BME280;19836;55.812;37.560;2023-09-30T11:19:37;99638.38;;;28.17;32.66
33496;BME280;19836;55.812;37.560;2023-09-30T11:22:11;99625.19;;;29.30;31.49
33496;BME280;19836;55.812;37.560;2023-09-30T11:24:37;99634.25;;;29.56;31.08
33496;BME280;19836;55.812;37.560;2023-09-30T11:27:03;99626.25;;;29.37;30.55
33496;BME280;19836;55.812;37.560;2023-09-30T11:29:30;99618.34;;;28.50;31.26
33496;BME280;19836;55.812;37.560;2023-09-30T11:31:56;99619.75;;;28.11;31.61
33496;BME280;19836;55.812;37.560;2023-09-30T11:34:36;99622.25;;;28.04;32.03
33496;BME280;19836;55.812;37.560;2023-09-30T11:37:06;99625.16;;;28.20;31.62
33496;BME280;19836;55.812;37.560;2023-09-30T11:39:32;99617.69;;;27.95;32.06
33496;BME280;19836;55.812;37.560;2023-09-30T11:42:00;99622.81;;;27.90;32.10
33496;BME280;19836;55.812;37.560;2023-09-30T11:44:26;99615.13;;;27.49;32.50
33496;BME280;19836;55.812;37.560;2023-09-30T11:47:01;99612.09;;;26.98;32.87
33496;BME280;19836;55.812;37.560;2023-09-30T11:49:35;99610.06;;;26.54;33.96
33496;BME280;19836;55.812;37.560;2023-09-30T11:52:02;99611.75;;;26.74;33.73
33496;BME280;19836;55.812;37.560;2023-09-30T11:54:34;99601.69;;;28.59;31.89
33496;BME280;19836;55.812;37.560;2023-09-30T11:57:01;99600.16;;;30.53;29.63
33496;BME280;19836;55.812;37.560;2023-09-30T11:59:27;99602.25;;;32.06;27.68
33496;BME280;19836;55.812;37.560;2023-09-30T12:01:53;99604.19;;;33.23;26.11
33496;BME280;19836;55.812;37.560;2023-09-30T12:04:20;99595.31;;;33.77;25.32
33496;BME280;19836;55.812;37.560;2023-09-30T12:06:47;99594.50;;;34.40;24.58
33496;BME280;19836;55.812;37.560;2023-09-30T12:09:15;99595.91;;;34.57;24.40
33496;BME280;19836;55.812;37.560;2023-09-30T12:11:42;99592.81;;;34.24;24.25
33496;BME280;19836;55.812;37.560;2023-09-30T12:14:12;99593.09;;;33.87;24.32
33496;BME280;19836;55.812;37.560;2023-09-30T12:16:40;99585.56;;;32.14;25.06
33496;BME280;19836;55.812;37.560;2023-09-30T12:19:07;99589.44;;;30.10;27.04
33496;BME280;19836;55.812;37.560;2023-09-30T12:21:34;99592.09;;;28.71;28.65
33496;BME280;19836;55.812;37.560;2023-09-30T12:24:01;99582.03;;;28.11;30.35
33496;BME280;19836;55.812;37.560;2023-09-30T12:26:29;99576.25;;;28.22;30.75
33496;BME280;19836;55.812;37.560;2023-09-30T12:28:56;99579.28;;;27.76;31.29
33496;BME280;19836;55.812;37.560;2023-09-30T12:31:22;99586.06;;;26.93;32.46
33496;BME280;19836;55.812;37.560;2023-09-30T12:33:49;99581.47;;;26.47;33.39
33496;BME280;19836;55.812;37.560;2023-09-30T12:36:17;99579.19;;;26.33;34.06
33496;BME280;19836;55.812;37.560;2023-09-30T12:38:43;99575.72;;;26.31;34.83
33496;BME280;19836;55.812;37.560;2023-09-30T12:41:10;99581.63;;;27.09;34.40
33496;BME280;19836;55.812;37.560;2023-09-30T12:43:37;99568.78;;;28.15;33.24
33496;BME280;19836;55.812;37.560;2023-09-30T12:46:03;99571.28;;;28.51;32.59
33496;BME280;19836;55.812;37.560;2023-09-30T12:48:30;99572.81;;;28.46;32.35
33496;BME280;19836;55.812;37.560;2023-09-30T12:50:55;99572.44;;;27.98;32.54
33496;BME280;19836;55.812;37.560;2023-09-30T12:53:21;99578.53;;;27.22;33.38
33496;BME280;19836;55.812;37.560;2023-09-30T12:55:47;99569.59;;;26.56;34.50
33496;BME280;19836;55.812;37.560;2023-09-30T12:58:13;99560.84;;;26.24;35.14
33496;BME280;19836;55.812;37.560;2023-09-30T13:00:40;99559.28;;;26.12;35.47
33496;BME280;19836;55.812;37.560;2023-09-30T13:03:06;99559.44;;;26.11;35.70
33496;BME280;19836;55.812;37.560;2023-09-30T13:05:33;99555.88;;;25.91;36.21
33496;BME280;19836;55.812;37.560;2023-09-30T13:07:59;99565.53;;;25.57;36.51
33496;BME280;19836;55.812;37.560;2023-09-30T13:10:25;99566.22;;;25.31;36.90
33496;BME280;19836;55.812;37.560;2023-09-30T13:12:51;99567.41;;;25.47;37.09
33496;BME280;19836;55.812;37.560;2023-09-30T13:15:19;99559.88;;;25.49;36.97
33496;BME280;19836;55.812;37.560;2023-09-30T13:17:47;99557.59;;;25.35;37.17
33496;BME280;19836;55.812;37.560;2023-09-30T13:20:13;99552.66;;;25.29;37.56
33496;BME280;19836;55.812;37.560;2023-09-30T13:22:39;99545.69;;;25.06;37.87
33496;BME280;19836;55.812;37.560;2023-09-30T13:25:05;99543.31;;;24.83;38.48
33496;BME280;19836;55.812;37.560;2023-09-30T13:27:32;99548.03;;;24.71;38.49
33496;BME280;19836;55.812;37.560;2023-09-30T13:29:58;99546.53;;;24.58;38.70
33496;BME280;19836;55.812;37.560;2023-09-30T13:32:25;99544.53;;;24.39;39.32
33496;BME280;19836;55.812;37.560;2023-09-30T13:34:51;99543.94;;;24.26;39.47
33496;BME280;19836;55.812;37.560;2023-09-30T13:37:17;99537.78;;;24.13;39.92
33496;BME280;19836;55.812;37.560;2023-09-30T13:39:43;99534.88;;;24.05;40.04
33496;BME280;19836;55.812;37.560;2023-09-30T13:42:09;99535.41;;;23.99;40.35
33496;BME280;19836;55.812;37.560;2023-09-30T13:44:35;99528.19;;;23.98;40.54
33496;BME280;19836;55.812;37.560;2023-09-30T13:47:02;99538.75;;;24.03;40.92
33496;BME280;19836;55.812;37.560;2023-09-30T13:49:28;99521.66;;;24.10;40.93
33496;BME280;19836;55.812;37.560;2023-09-30T13:51:56;99524.28;;;24.21;40.81
33496;BME280;19836;55.812;37.560;2023-09-30T13:54:22;99523.19;;;24.33;40.67
33496;BME280;19836;55.812;37.560;2023-09-30T13:56:48;99531.69;;;24.30;40.58
33496;BME280;19836;55.812;37.560;2023-09-30T13:59:13;99522.50;;;24.11;40.44